createdAt,value
2019-04-11T00:04:48.575Z,11.02
2019-04-11T00:10:12.385Z,10.94
2019-04-11T00:15:34.892Z,10.92
2019-04-11T00:21:08.740Z,10.88
2019-04-11T00:26:32.735Z,10.83
2019-04-11T00:31:54.898Z,10.78
2019-04-11T00:37:16.962Z,10.74
2019-04-11T00:42:38.848Z,10.73
2019-04-11T00:48:01.584Z,10.80
2019-04-11T00:53:23.065Z,10.72
2019-04-11T00:58:45.684Z,10.78
2019-04-11T01:04:08.181Z,10.66
2019-04-11T01:09:30.557Z,10.58
2019-04-11T01:14:53.140Z,10.46
2019-04-11T01:20:15.408Z,10.60
2019-04-11T01:25:38.957Z,10.69
2019-04-11T01:31:05.216Z,10.72
2019-04-11T01:36:31.174Z,10.72
2019-04-11T01:41:55.160Z,10.65
2019-04-11T01:47:30.936Z,10.67
2019-04-11T01:52:53.088Z,10.83
2019-04-11T01:58:14.724Z,10.78
2019-04-11T02:03:55.033Z,10.35
2019-04-11T02:09:16.836Z,10.44
2019-04-11T02:14:39.649Z,10.40
2019-04-11T02:20:01.391Z,10.21
2019-04-11T02:25:42.851Z,10.09
2019-04-11T02:31:05.562Z,10.02
2019-04-11T02:36:30.032Z,9.92
2019-04-11T02:41:52.800Z,9.97
2019-04-11T02:47:20.266Z,9.68
2019-04-11T02:52:39.950Z,9.52
2019-04-11T02:58:03.323Z,9.44
2019-04-11T03:03:25.509Z,9.36
2019-04-11T03:08:48.996Z,9.52
2019-04-11T03:14:12.170Z,9.53
2019-04-11T03:19:49.530Z,9.62
2019-04-11T03:25:00.351Z,9.53
2019-04-11T03:30:42.164Z,9.54
2019-04-11T03:36:38.675Z,9.50
2019-04-11T03:41:26.974Z,9.41
2019-04-11T03:46:54.219Z,9.42
2019-04-11T03:52:06.337Z,9.46
2019-04-11T03:57:29.910Z,9.46
2019-04-11T04:02:52.541Z,9.50
2019-04-11T04:08:20.322Z,9.36
2019-04-11T04:13:49.830Z,9.43
2019-04-11T04:19:37.712Z,9.61
2019-04-11T04:25:01.249Z,9.83
2019-04-11T04:30:27.779Z,9.77
2019-04-11T04:35:51.813Z,9.82
2019-04-11T04:41:27.911Z,9.75
2019-04-11T04:46:55.489Z,9.80
2019-04-11T04:52:14.069Z,9.94
2019-04-11T04:57:40.573Z,10.11
2019-04-11T05:03:02.682Z,10.18
2019-04-11T05:08:25.007Z,10.35
2019-04-11T05:13:50.451Z,10.30
2019-04-11T05:19:12.794Z,10.32
2019-04-11T05:24:36.837Z,10.71
2019-04-11T05:30:00.802Z,10.87
2019-04-11T05:35:25.503Z,10.62
2019-04-11T05:40:48.283Z,10.69
2019-04-11T05:46:23.946Z,10.78
2019-04-11T05:51:39.939Z,10.63
2019-04-11T05:57:03.081Z,10.89
2019-04-11T06:02:37.811Z,11.16
2019-04-11T06:08:02.579Z,11.18
2019-04-11T06:13:32.515Z,11.31
2019-04-11T06:19:28.994Z,11.57
2019-04-11T06:25:11.244Z,11.59
2019-04-11T06:30:56.871Z,12.01
2019-04-11T06:36:34.849Z,12.07
2019-04-11T06:42:25.617Z,12.52
2019-04-11T06:48:07.405Z,12.66
2019-04-11T06:53:42.043Z,12.48
2019-04-11T06:59:18.430Z,12.93
2019-04-11T07:04:54.404Z,13.12
2019-04-11T07:10:22.380Z,13.39
2019-04-11T07:15:50.830Z,13.46
2019-04-11T07:21:13.530Z,13.79
2019-04-11T07:26:38.567Z,13.89
2019-04-11T07:32:09.491Z,13.74
2019-04-11T07:37:34.357Z,13.81
2019-04-11T07:43:17.269Z,13.82
2019-04-11T07:48:44.628Z,14.00
2019-04-11T07:54:20.336Z,13.78
2019-04-11T08:00:00.556Z,13.61
2019-04-11T08:05:48.370Z,13.46
2019-04-11T08:11:36.603Z,13.29
2019-04-11T08:17:27.106Z,13.22
2019-04-11T08:22:41.326Z,13.13
2019-04-11T08:28:09.993Z,13.14
2019-04-11T08:33:35.112Z,12.94
2019-04-11T08:39:00.693Z,13.06
2019-04-11T08:44:41.904Z,12.96
2019-04-11T08:50:06.015Z,12.81
2019-04-11T08:55:55.836Z,12.68
2019-04-11T09:01:20.062Z,12.37
2019-04-11T09:06:41.685Z,12.39
2019-04-11T09:12:07.421Z,12.48
2019-04-11T09:17:55.215Z,12.58
2019-04-11T09:23:13.425Z,12.77
2019-04-11T09:28:44.071Z,12.97
2019-04-11T09:34:28.035Z,13.08
2019-04-11T09:40:17.349Z,13.03
2019-04-11T09:46:03.285Z,12.74
2019-04-11T09:51:47.859Z,12.76
2019-04-11T09:57:32.508Z,13.04
2019-04-11T10:03:19.688Z,13.13
2019-04-11T10:08:49.113Z,13.41
2019-04-11T10:14:17.502Z,13.71
2019-04-11T10:20:00.231Z,13.95
2019-04-11T10:25:37.096Z,14.15
2019-04-11T10:31:26.294Z,13.76
2019-04-11T10:37:09.604Z,13.65
2019-04-11T10:42:32.868Z,13.71
2019-04-11T10:48:45.273Z,13.62
2019-04-11T10:54:08.638Z,13.81
2019-04-11T10:59:32.550Z,13.89
2019-04-11T11:05:03.197Z,13.88
2019-04-11T11:16:45.455Z,13.56
2019-04-11T11:22:40.296Z,13.58
2019-04-11T11:28:03.207Z,13.23
2019-04-11T11:33:34.747Z,13.23
2019-04-11T11:39:17.255Z,13.35
2019-04-11T11:44:53.448Z,13.47
2019-04-11T11:50:19.803Z,13.37
2019-04-11T11:55:41.266Z,13.49
2019-04-11T12:01:08.498Z,13.59
2019-04-11T12:06:29.196Z,13.54
2019-04-11T13:05:16.334Z,12.34
2019-04-11T13:10:41.410Z,12.55
2019-04-11T13:16:12.734Z,12.83
2019-04-11T13:22:00.965Z,12.98
2019-04-11T13:27:28.642Z,12.96
2019-04-11T13:33:02.557Z,12.81
2019-04-11T13:38:31.304Z,12.72
2019-04-11T13:44:14.759Z,12.50
2019-04-11T13:49:52.591Z,12.37
2019-04-11T13:55:42.157Z,12.35
2019-04-11T15:08:48.886Z,13.22
2019-04-11T15:14:30.429Z,13.41
2019-04-11T15:20:23.591Z,13.19
2019-04-11T15:26:08.120Z,12.94
2019-04-11T15:31:48.198Z,12.91
2019-04-11T15:37:47.287Z,12.82
2019-04-11T15:43:43.419Z,12.83
2019-04-11T15:49:36.793Z,12.83
2019-04-11T15:55:17.474Z,12.68
2019-04-11T16:00:54.681Z,12.64
2019-04-11T16:06:38.976Z,12.56
2019-04-11T16:12:07.926Z,12.56
2019-04-11T16:17:51.838Z,12.54
2019-04-11T16:23:35.921Z,12.55
2019-04-11T16:29:11.267Z,12.38
2019-04-11T16:34:48.792Z,12.25
2019-04-11T16:40:35.714Z,12.31
2019-04-11T16:46:24.862Z,12.20
2019-04-11T16:51:46.845Z,12.02
2019-04-11T16:57:08.701Z,12.03
2019-04-11T17:02:30.445Z,11.99
2019-04-11T17:08:07.661Z,12.11
2019-04-11T17:13:32.188Z,12.23
2019-04-11T17:18:52.976Z,12.25
2019-04-11T17:24:16.744Z,12.43
2019-04-11T17:29:37.988Z,12.45
2019-04-11T17:35:01.995Z,12.47
2019-04-11T17:40:24.664Z,12.24
2019-04-11T17:45:46.419Z,12.22
2019-04-11T17:51:11.657Z,12.08
2019-04-11T17:56:33.508Z,11.89
2019-04-11T18:01:54.917Z,11.81
2019-04-11T18:07:17.734Z,11.89
2019-04-11T18:12:39.674Z,11.94
2019-04-11T18:18:03.147Z,12.03
2019-04-11T18:23:26.402Z,12.07
2019-04-11T18:28:51.722Z,12.12
2019-04-11T18:34:12.666Z,12.21
2019-04-11T18:39:35.922Z,12.16
2019-04-11T18:44:58.413Z,12.11
2019-04-11T18:50:22.785Z,12.06
2019-04-11T18:55:44.651Z,11.98
2019-04-11T19:01:09.053Z,11.94
2019-04-11T19:06:30.667Z,11.76
2019-04-11T19:11:52.726Z,11.80
2019-04-11T19:17:15.840Z,11.70
2019-04-11T19:22:38.560Z,11.55
2019-04-11T19:28:00.834Z,11.48
2019-04-11T19:33:22.764Z,11.50
2019-04-11T19:38:44.954Z,11.43
2019-04-11T19:44:07.122Z,11.42
2019-04-11T19:49:29.673Z,11.24
2019-04-11T19:54:52.180Z,11.20
2019-04-11T20:00:14.148Z,11.24
2019-04-11T20:05:35.875Z,11.37
2019-04-11T20:11:01.078Z,11.39
2019-04-11T20:16:21.157Z,11.34
2019-04-11T20:21:43.079Z,11.34
2019-04-11T20:27:04.987Z,11.33
2019-04-11T20:32:27.117Z,11.43
2019-04-11T20:37:49.152Z,11.53
2019-04-11T20:43:11.839Z,11.57
2019-04-11T20:48:35.285Z,11.63
2019-04-11T20:53:57.785Z,11.67
2019-04-11T20:59:20.032Z,11.54
2019-04-11T21:04:41.681Z,11.71
2019-04-11T21:10:04.680Z,11.71
2019-04-11T21:15:26.520Z,11.29
2019-04-11T21:20:48.748Z,11.39
2019-04-11T21:26:10.183Z,11.40
2019-04-11T21:31:32.044Z,11.51
2019-04-11T21:36:53.899Z,11.56
2019-04-11T21:42:16.148Z,11.56
2019-04-11T21:47:38.122Z,11.60
2019-04-11T21:53:00.157Z,11.53
2019-04-11T21:58:22.174Z,11.48
2019-04-11T22:03:44.590Z,11.59
2019-04-11T22:09:08.299Z,11.49
2019-04-11T22:14:30.007Z,11.62
2019-04-11T22:19:51.657Z,11.59
2019-04-11T22:25:13.438Z,11.61
2019-04-11T22:30:35.521Z,11.46
2019-04-11T22:35:59.317Z,11.22
2019-04-11T22:41:21.333Z,11.33
2019-04-11T22:46:43.350Z,11.36
2019-04-11T22:52:05.132Z,11.13
2019-04-11T22:57:26.780Z,11.17
2019-04-11T23:08:48.976Z,10.99
2019-04-11T23:14:11.360Z,10.94
2019-04-11T23:19:33.064Z,11.00
2019-04-11T23:24:54.436Z,10.91
2019-04-11T23:30:18.423Z,10.90
2019-04-11T23:35:39.879Z,10.78
2019-04-11T23:41:01.543Z,10.76
2019-04-11T23:46:23.787Z,10.76
2019-04-11T23:51:45.722Z,10.77
2019-04-11T23:57:07.509Z,10.69
